createdAt,value
2022-11-08T00:02:24.498Z,100207.78
2022-11-08T00:04:51.745Z,100204.31
2022-11-08T00:07:37.502Z,100193.09
2022-11-08T00:10:23.217Z,100197.59
2022-11-08T00:13:08.900Z,100191.81
2022-11-08T00:15:39.016Z,100135.78
2022-11-08T00:18:07.716Z,100156.28
2022-11-08T00:20:35.192Z,100151.63
2022-11-08T00:23:02.378Z,100151.91
2022-11-08T00:25:29.389Z,100170.28
2022-11-08T00:27:57.498Z,100072.69
2022-11-08T00:30:24.540Z,100080.56
2022-11-08T00:32:51.844Z,100063.88
2022-11-08T00:35:18.860Z,100146.59
2022-11-08T00:37:45.919Z,100120.50
2022-11-08T00:40:13.152Z,100140.59
2022-11-08T00:42:40.301Z,100128.41
2022-11-08T00:45:07.749Z,100113.72
2022-11-08T00:47:35.086Z,100060.75
2022-11-08T00:50:02.189Z,100139.03
2022-11-08T00:52:30.923Z,100133.00
2022-11-08T00:54:58.280Z,100093.19
2022-11-08T00:57:46.898Z,100031.00
2022-11-08T01:00:13.164Z,100097.66
2022-11-08T01:02:40.399Z,100116.03
2022-11-08T01:05:07.853Z,100101.66
2022-11-08T01:07:34.976Z,100105.81
2022-11-08T01:10:02.240Z,100102.22
2022-11-08T01:12:30.646Z,100104.53
2022-11-08T01:14:57.905Z,100120.50
2022-11-08T01:17:24.996Z,100111.44
2022-11-08T01:19:52.054Z,100052.56
2022-11-08T01:22:19.157Z,100114.91
2022-11-08T01:24:46.187Z,100122.75
2022-11-08T01:27:13.323Z,100119.78
2022-11-08T01:29:40.315Z,100119.72
2022-11-08T01:32:07.337Z,100106.88
2022-11-08T01:34:34.570Z,100114.72
2022-11-08T01:37:01.713Z,100109.69
2022-11-08T01:39:33.072Z,100103.81
2022-11-08T01:42:00.208Z,100030.88
2022-11-08T01:44:27.382Z,100107.16
2022-11-08T01:46:54.761Z,100110.81
2022-11-08T01:49:37.529Z,100093.31
2022-11-08T01:52:23.193Z,100094.88
2022-11-08T01:55:23.363Z,100089.72
2022-11-08T01:57:54.553Z,100061.38
2022-11-08T02:00:22.329Z,100099.44
2022-11-08T02:02:54.913Z,100030.03
2022-11-08T02:05:26.353Z,100098.72
2022-11-08T02:08:08.817Z,100064.66
2022-11-08T02:10:42.116Z,100080.41
2022-11-08T02:13:15.088Z,100084.97
2022-11-08T02:15:43.638Z,100078.81
2022-11-08T02:18:11.816Z,100041.91
2022-11-08T02:20:44.260Z,100084.66
2022-11-08T02:23:32.524Z,99975.81
2022-11-08T02:25:59.527Z,100047.06
2022-11-08T02:28:26.696Z,100033.31
2022-11-08T02:30:54.774Z,100069.03
2022-11-08T02:33:23.442Z,100085.41
2022-11-08T02:35:55.078Z,100002.16
2022-11-08T02:38:25.439Z,100060.22
2022-11-08T02:40:54.696Z,100069.22
2022-11-08T02:43:23.254Z,100038.50
2022-11-08T02:45:51.725Z,100058.00
2022-11-08T02:48:20.450Z,100050.28
2022-11-08T02:50:47.919Z,99954.53
2022-11-08T02:53:15.786Z,100052.19
2022-11-08T02:55:42.986Z,100049.56
2022-11-08T02:58:11.375Z,100001.00
2022-11-08T03:00:39.041Z,100051.94
2022-11-08T03:03:06.340Z,100026.53
2022-11-08T03:05:33.805Z,99969.59
2022-11-08T03:08:00.874Z,100046.94
2022-11-08T03:10:29.276Z,100011.03
2022-11-08T03:12:57.496Z,100034.22
2022-11-08T03:15:25.449Z,100036.78
2022-11-08T03:17:52.474Z,100039.50
2022-11-08T03:20:19.673Z,100024.56
2022-11-08T03:22:47.585Z,100038.25
2022-11-08T03:25:14.549Z,100002.63
2022-11-08T03:27:41.667Z,100027.22
2022-11-08T03:30:08.904Z,100035.75
2022-11-08T03:32:35.915Z,100028.63
2022-11-08T03:35:02.892Z,100031.25
2022-11-08T03:37:30.747Z,100018.56
2022-11-08T03:39:57.839Z,99989.84
2022-11-08T03:42:24.907Z,99952.00
2022-11-08T03:44:51.943Z,99978.53
2022-11-08T03:47:18.947Z,100018.31
2022-11-08T03:49:46.038Z,100004.13
2022-11-08T03:52:13.175Z,100013.16
2022-11-08T03:54:40.215Z,100006.19
2022-11-08T03:57:07.209Z,100009.00
2022-11-08T03:59:34.263Z,99995.78
2022-11-08T04:02:01.460Z,100006.38
2022-11-08T04:04:28.485Z,100010.59
2022-11-08T04:06:55.472Z,100015.84
2022-11-08T04:09:22.505Z,99891.28
2022-11-08T04:12:07.974Z,100011.63
2022-11-08T04:14:53.605Z,99980.50
2022-11-08T04:17:40.515Z,99905.00
2022-11-08T04:20:27.904Z,99969.09
2022-11-08T04:22:54.919Z,99974.97
2022-11-08T04:25:22.068Z,100018.91
2022-11-08T04:27:50.029Z,99982.09
2022-11-08T04:30:17.151Z,99902.19
2022-11-08T04:32:44.280Z,100008.38
2022-11-08T04:35:11.139Z,99999.00
2022-11-08T04:37:38.143Z,99982.91
2022-11-08T04:40:05.714Z,100002.59
2022-11-08T04:42:32.670Z,99937.63
2022-11-08T04:44:59.585Z,99984.28
2022-11-08T04:47:28.133Z,99923.69
2022-11-08T04:49:55.231Z,99955.44
2022-11-08T04:52:22.348Z,99922.31
2022-11-08T04:54:49.571Z,99975.84
2022-11-08T04:57:16.736Z,99992.75
2022-11-08T04:59:43.834Z,99999.72
2022-11-08T05:02:10.960Z,99986.91
2022-11-08T05:04:38.224Z,99907.63
2022-11-08T05:07:05.367Z,99976.25
2022-11-08T05:09:32.494Z,99916.31
2022-11-08T05:12:00.820Z,99990.13
2022-11-08T05:14:27.906Z,99952.63
2022-11-08T05:16:55.039Z,99972.22
2022-11-08T05:19:48.227Z,99976.41
2022-11-08T05:22:33.843Z,99982.44
2022-11-08T05:25:01.029Z,99972.09
2022-11-08T05:27:28.839Z,99985.38
2022-11-08T05:29:55.795Z,99968.59
2022-11-08T05:32:23.047Z,99980.22
2022-11-08T05:34:50.110Z,99969.66
2022-11-08T05:37:17.318Z,99984.56
2022-11-08T05:39:44.339Z,99983.78
2022-11-08T05:42:11.766Z,99955.13
2022-11-08T05:44:38.894Z,99968.56
2022-11-08T05:47:06.289Z,99957.19
2022-11-08T05:49:33.587Z,99967.63
2022-11-08T05:52:00.701Z,99961.66
2022-11-08T05:54:27.722Z,99928.09
2022-11-08T05:56:54.651Z,99962.44
2022-11-08T05:59:21.580Z,99926.63
2022-11-08T06:01:48.538Z,99989.34
2022-11-08T06:04:15.690Z,99874.88
2022-11-08T06:06:42.684Z,99854.13
2022-11-08T06:09:09.587Z,99797.13
2022-11-08T06:11:36.608Z,99853.53
2022-11-08T06:14:03.593Z,99944.69
2022-11-08T06:16:30.649Z,99865.09
2022-11-08T06:18:57.594Z,99898.75
2022-11-08T06:21:27.361Z,99943.22
2022-11-08T06:23:55.047Z,99949.72
2022-11-08T06:26:24.229Z,99932.03
2022-11-08T06:28:51.382Z,99942.88
2022-11-08T06:31:18.768Z,99937.50
2022-11-08T06:33:45.998Z,99933.22
2022-11-08T06:36:13.553Z,99935.72
2022-11-08T06:38:43.964Z,99889.44
2022-11-08T06:41:17.809Z,99938.72
2022-11-08T06:43:44.815Z,99934.53
2022-11-08T06:46:11.923Z,99918.66
2022-11-08T06:48:38.967Z,99890.75
2022-11-08T06:51:06.358Z,99934.75
2022-11-08T06:53:33.426Z,99919.06
2022-11-08T06:56:01.893Z,99926.00
2022-11-08T06:58:29.624Z,99920.69
2022-11-08T07:00:56.755Z,99925.84
2022-11-08T07:03:24.007Z,99946.84
2022-11-08T07:05:51.104Z,99931.34
2022-11-08T07:08:23.339Z,99940.00
2022-11-08T07:10:51.859Z,99957.59
2022-11-08T07:13:19.609Z,99956.81
2022-11-08T07:15:49.948Z,99955.94
2022-11-08T07:18:19.168Z,99958.47
2022-11-08T07:20:46.491Z,99935.97
2022-11-08T07:23:14.056Z,99948.47
2022-11-08T07:25:45.696Z,99926.72
2022-11-08T07:28:16.887Z,99945.00
2022-11-08T07:30:45.715Z,99943.34
2022-11-08T07:33:13.911Z,99906.53
2022-11-08T07:35:41.805Z,99860.88
2022-11-08T07:38:08.866Z,99931.25
2022-11-08T07:40:35.850Z,99897.19
2022-11-08T07:43:11.870Z,99827.09
2022-11-08T07:45:57.954Z,99933.91
2022-11-08T07:48:25.945Z,99907.84
2022-11-08T07:50:53.096Z,99921.72
2022-11-08T07:53:20.740Z,99856.28
2022-11-08T07:55:48.316Z,99848.53
2022-11-08T07:58:16.406Z,99918.78
2022-11-08T08:00:45.078Z,99925.88
2022-11-08T08:03:14.081Z,99899.84
2022-11-08T08:05:44.612Z,99811.47
2022-11-08T08:08:13.450Z,99914.19
2022-11-08T08:10:41.616Z,99921.22
2022-11-08T08:13:09.042Z,99915.34
2022-11-08T08:15:36.110Z,99915.34
2022-11-08T08:18:05.007Z,99915.22
2022-11-08T08:20:33.102Z,99888.13
2022-11-08T08:23:00.934Z,99816.56
2022-11-08T08:25:31.305Z,99901.19
2022-11-08T08:28:01.171Z,99916.31
2022-11-08T08:30:30.383Z,99823.44
2022-11-08T08:35:58.159Z,99910.47
2022-11-08T08:38:26.910Z,99912.19
2022-11-08T08:40:53.908Z,99900.75
2022-11-08T08:43:21.729Z,99869.16
2022-11-08T08:45:49.215Z,99913.00
2022-11-08T08:48:16.407Z,99911.16
2022-11-08T08:50:43.726Z,99815.63
2022-11-08T08:53:11.089Z,99831.53
2022-11-08T08:55:39.859Z,99883.09
2022-11-08T08:58:06.861Z,99910.56
2022-11-08T09:03:21.911Z,99881.75
2022-11-08T09:05:49.166Z,99872.22
2022-11-08T09:08:16.280Z,99876.66
2022-11-08T09:10:43.372Z,99880.38
2022-11-08T09:13:10.689Z,99885.06
2022-11-08T09:15:39.517Z,99883.25
2022-11-08T09:18:07.051Z,99891.25
2022-11-08T09:20:34.146Z,99887.75
2022-11-08T09:23:05.167Z,99896.56
2022-11-08T09:25:32.186Z,99892.34
2022-11-08T09:27:59.241Z,99865.31
2022-11-08T09:30:26.896Z,99880.22
2022-11-08T09:33:00.704Z,99883.59
2022-11-08T09:35:28.621Z,99851.22
2022-11-08T09:37:56.018Z,99860.81
2022-11-08T09:40:39.902Z,99883.66
2022-11-08T09:43:46.490Z,99885.38
2022-11-08T09:46:24.971Z,99860.88
2022-11-08T09:48:53.860Z,99862.78
2022-11-08T09:51:23.911Z,99839.16
2022-11-08T09:54:00.024Z,99849.69
2022-11-08T09:56:29.932Z,99869.84
2022-11-08T09:59:18.349Z,99802.38
2022-11-08T10:01:45.465Z,99853.34
2022-11-08T10:04:16.408Z,99872.34
2022-11-08T10:07:03.776Z,99861.41
2022-11-08T10:10:28.306Z,99868.50
2022-11-08T10:13:14.975Z,99832.56
2022-11-08T10:15:58.988Z,99860.59
2022-11-08T10:18:59.366Z,99837.31
2022-11-08T10:21:48.329Z,99801.97
2022-11-08T10:24:25.839Z,99853.72
2022-11-08T10:26:55.362Z,99857.31
2022-11-08T10:29:27.884Z,99815.28
2022-11-08T10:32:24.835Z,99862.69
2022-11-08T10:35:01.242Z,99866.25
2022-11-08T10:37:33.385Z,99845.47
2022-11-08T10:40:46.554Z,99857.91
2022-11-08T10:43:26.684Z,99857.09
2022-11-08T10:45:53.875Z,99740.59
2022-11-08T10:48:20.952Z,99859.63
2022-11-08T10:50:52.865Z,99857.03
2022-11-08T10:53:27.251Z,99845.66
2022-11-08T10:56:05.810Z,99824.63
2022-11-08T10:58:41.499Z,99855.94
2022-11-08T11:01:20.347Z,99835.16
2022-11-08T11:03:49.392Z,99834.22
2022-11-08T11:06:33.134Z,99851.09
2022-11-08T11:09:03.817Z,99851.03
2022-11-08T11:11:30.918Z,99845.94
2022-11-08T11:14:21.986Z,99835.56
2022-11-08T11:17:00.796Z,99841.72
2022-11-08T11:19:29.379Z,99836.41
2022-11-08T11:22:15.258Z,99834.84
2022-11-08T11:24:52.208Z,99826.03
2022-11-08T11:27:30.297Z,99838.28
2022-11-08T11:30:23.117Z,99833.09
2022-11-08T11:33:27.046Z,99833.78
2022-11-08T11:36:19.090Z,99797.09
2022-11-08T11:38:49.005Z,99830.19
2022-11-08T11:41:22.372Z,99827.69
2022-11-08T11:44:17.378Z,99828.78
2022-11-08T11:47:03.133Z,99823.53
2022-11-08T11:49:31.822Z,99735.19
2022-11-08T11:51:59.098Z,99793.88
2022-11-08T11:54:32.669Z,99837.63
2022-11-08T11:57:24.278Z,99768.63
2022-11-08T11:59:57.406Z,99844.44
2022-11-08T12:02:42.658Z,99820.09
2022-11-08T12:05:47.169Z,99845.34
2022-11-08T12:08:23.893Z,99842.63
2022-11-08T12:11:06.731Z,99801.59
2022-11-08T12:14:07.457Z,99847.81
2022-11-08T12:16:37.444Z,99681.59
2022-11-08T12:19:29.553Z,99828.88
2022-11-08T12:22:02.828Z,99820.00
2022-11-08T12:24:48.229Z,99837.53
2022-11-08T12:27:36.813Z,99839.53
2022-11-08T12:30:36.018Z,99842.78
2022-11-08T12:33:23.220Z,99847.97
2022-11-08T12:36:14.529Z,99851.38
2022-11-08T12:39:07.772Z,99834.75
2022-11-08T12:41:50.211Z,99853.09
2022-11-08T12:44:35.379Z,99788.41
2022-11-08T12:47:20.676Z,99851.38
2022-11-08T12:49:57.132Z,99853.84
2022-11-08T12:52:55.367Z,99844.44
2022-11-08T12:55:27.778Z,99846.28
2022-11-08T12:57:58.871Z,99803.06
2022-11-08T13:00:28.482Z,99816.91
2022-11-08T13:03:43.106Z,99821.53
2022-11-08T13:06:25.406Z,99824.84
2022-11-08T13:12:41.366Z,99771.47
2022-11-08T13:15:25.323Z,99819.19
2022-11-08T13:18:07.622Z,99806.13
2022-11-08T13:20:46.499Z,99721.41
2022-11-08T13:23:33.227Z,99784.56
2022-11-08T13:26:23.393Z,99816.94
2022-11-08T13:28:51.596Z,99814.09
2022-11-08T13:31:28.063Z,99805.25
2022-11-08T13:34:23.732Z,99794.91
2022-11-08T13:37:22.781Z,99811.38
2022-11-08T13:53:58.493Z,99721.75
2022-11-08T13:56:40.005Z,99836.19
2022-11-08T13:59:32.214Z,99837.22
2022-11-08T14:01:59.697Z,99816.88
2022-11-08T14:04:40.943Z,99829.34
2022-11-08T14:07:11.022Z,99833.59
2022-11-08T14:09:49.116Z,99831.06
2022-11-08T14:12:31.319Z,99829.28
2022-11-08T14:15:07.453Z,99833.63
2022-11-08T14:17:44.909Z,99832.84
2022-11-08T14:20:39.745Z,99808.66
2022-11-08T14:23:33.208Z,99596.16
2022-11-08T14:26:02.168Z,99671.13
2022-11-08T14:28:31.384Z,99559.72
2022-11-08T14:30:59.897Z,99822.38
2022-11-08T14:33:29.460Z,99833.72
2022-11-08T14:35:56.518Z,99827.59
2022-11-08T14:38:25.733Z,99826.56
2022-11-08T14:41:00.030Z,99794.44
2022-11-08T14:43:27.880Z,99746.44
2022-11-08T14:45:58.311Z,99805.00
2022-11-08T14:48:29.769Z,99811.28
2022-11-08T14:51:01.739Z,99820.72
2022-11-08T14:53:34.578Z,99821.72
2022-11-08T14:56:16.816Z,99812.38
2022-11-08T14:58:44.581Z,99811.03
2022-11-08T15:01:13.929Z,99751.66
2022-11-08T15:03:47.289Z,99705.44
2022-11-08T15:06:14.644Z,99807.69
2022-11-08T15:08:53.298Z,99820.09
2022-11-08T15:11:32.064Z,99815.88
2022-11-08T15:14:03.439Z,99720.47
2022-11-08T15:16:45.413Z,99711.81
2022-11-08T15:19:29.928Z,99817.69
2022-11-08T15:22:01.643Z,99732.63
2022-11-08T15:24:39.919Z,99786.25
2022-11-08T15:27:13.492Z,99821.25
2022-11-08T15:29:59.641Z,99783.66
2022-11-08T15:32:27.627Z,99738.06
2022-11-08T15:34:58.714Z,99776.53
2022-11-08T15:37:35.642Z,99713.56
2022-11-08T15:40:14.455Z,99833.41
2022-11-08T15:42:45.639Z,99839.38
2022-11-08T15:45:12.807Z,99832.50
2022-11-08T15:47:42.844Z,99821.84
2022-11-08T15:50:14.163Z,99841.03
2022-11-08T15:52:42.215Z,99844.44
2022-11-08T15:55:14.003Z,99604.06
2022-11-08T15:57:43.406Z,99838.53
2022-11-08T16:00:15.751Z,99834.91
2022-11-08T16:02:43.660Z,99838.50
2022-11-08T16:05:21.867Z,99840.28
2022-11-08T16:07:50.583Z,99738.09
2022-11-08T16:10:39.374Z,99771.44
2022-11-08T16:13:07.678Z,99829.03
2022-11-08T16:15:35.760Z,99842.97
2022-11-08T16:18:03.730Z,99835.22
2022-11-08T16:20:33.716Z,99762.53
2022-11-08T16:23:02.921Z,99760.72
2022-11-08T16:25:35.376Z,99748.50
2022-11-08T16:28:09.118Z,99847.25
2022-11-08T16:30:36.385Z,99843.81
2022-11-08T16:33:29.044Z,99835.78
2022-11-08T16:35:58.187Z,99864.28
2022-11-08T16:38:29.295Z,99852.84
2022-11-08T16:40:56.431Z,99854.88
2022-11-08T16:43:23.397Z,99788.34
2022-11-08T16:46:04.866Z,99841.78
2022-11-08T16:48:32.368Z,99858.47
2022-11-08T16:51:01.860Z,99862.00
2022-11-08T16:53:32.607Z,99815.78
2022-11-08T16:55:59.759Z,99863.88
2022-11-08T16:58:28.187Z,99824.53
2022-11-08T17:00:56.640Z,99852.63
2022-11-08T17:03:25.835Z,99822.91
2022-11-08T17:05:54.246Z,99814.22
2022-11-08T17:08:22.071Z,99845.84
2022-11-08T17:10:49.227Z,99796.84
2022-11-08T17:13:18.564Z,99760.16
2022-11-08T17:15:47.222Z,99854.50
2022-11-08T17:18:17.010Z,99844.25
2022-11-08T17:20:44.546Z,99849.38
2022-11-08T17:23:11.887Z,99829.28
2022-11-08T17:25:40.468Z,99842.50
2022-11-08T17:28:08.598Z,99840.75
2022-11-08T17:30:37.136Z,99827.63
2022-11-08T17:33:04.402Z,99825.78
2022-11-08T17:35:31.469Z,99804.72
2022-11-08T17:37:58.494Z,99841.59
2022-11-08T17:40:25.510Z,99811.03
2022-11-08T17:42:52.911Z,99824.16
2022-11-08T17:45:20.410Z,99851.31
2022-11-08T17:47:48.860Z,99845.28
2022-11-08T17:50:16.069Z,99839.06
2022-11-08T17:52:43.077Z,99848.69
2022-11-08T17:55:10.308Z,99782.00
2022-11-08T17:57:37.408Z,99835.44
2022-11-08T18:00:08.585Z,99839.81
2022-11-08T18:02:39.878Z,99854.75
2022-11-08T18:05:07.395Z,99794.28
2022-11-08T18:07:34.432Z,99807.50
2022-11-08T18:10:03.945Z,99848.63
2022-11-08T18:12:33.012Z,99842.53
2022-11-08T18:15:01.497Z,99848.72
2022-11-08T18:17:30.242Z,99829.44
2022-11-08T18:19:57.427Z,99855.69
2022-11-08T18:22:24.781Z,99844.38
2022-11-08T18:24:51.942Z,99849.56
2022-11-08T18:27:19.075Z,99847.13
2022-11-08T18:29:46.445Z,99869.81
2022-11-08T18:32:13.491Z,99874.03
2022-11-08T18:34:40.622Z,99868.09
2022-11-08T18:37:07.853Z,99846.19
2022-11-08T18:39:36.169Z,99850.69
2022-11-08T18:42:03.307Z,99875.03
2022-11-08T18:44:30.720Z,99871.53
2022-11-08T18:46:58.426Z,99716.72
2022-11-08T18:49:27.966Z,99869.84
2022-11-08T18:51:57.714Z,99876.81
2022-11-08T18:54:24.922Z,99864.56
2022-11-08T18:56:52.001Z,99878.56
2022-11-08T18:59:20.842Z,99834.75
2022-11-08T19:01:48.168Z,99869.84
2022-11-08T19:04:15.571Z,99859.28
2022-11-08T19:06:42.612Z,99782.44
2022-11-08T19:09:09.665Z,99882.78
2022-11-08T19:11:37.211Z,99878.38
2022-11-08T19:14:04.226Z,99847.84
2022-11-08T19:16:32.395Z,99859.16
2022-11-08T19:18:59.888Z,99792.72
2022-11-08T19:21:28.164Z,99828.63
2022-11-08T19:23:59.422Z,99881.16
2022-11-08T19:26:28.909Z,99880.06
2022-11-08T19:28:57.379Z,99853.88
2022-11-08T19:31:25.524Z,99895.88
2022-11-08T19:33:53.929Z,99889.66
2022-11-08T19:36:23.482Z,99787.31
2022-11-08T19:38:52.277Z,99892.53
2022-11-08T19:41:21.414Z,99905.53
2022-11-08T19:43:49.028Z,99897.88
2022-11-08T19:46:18.589Z,99865.47
2022-11-08T19:48:47.106Z,99893.47
2022-11-08T19:51:22.223Z,99896.06
2022-11-08T19:53:50.126Z,99881.47
2022-11-08T19:56:19.421Z,99899.78
2022-11-08T19:58:47.125Z,99888.31
2022-11-08T20:01:16.528Z,99906.66
2022-11-08T20:03:44.468Z,99902.28
2022-11-08T20:06:12.248Z,99890.81
2022-11-08T20:08:39.557Z,99862.91
2022-11-08T20:11:33.203Z,99892.72
2022-11-08T20:14:01.169Z,99819.34
2022-11-08T20:16:32.615Z,99904.13
2022-11-08T20:19:14.362Z,99892.94
2022-11-08T20:21:45.964Z,99871.81
2022-11-08T20:24:14.522Z,99900.84
2022-11-08T20:26:42.074Z,99906.88
2022-11-08T20:29:09.992Z,99896.44
2022-11-08T20:31:38.775Z,99822.94
2022-11-08T20:34:09.757Z,99848.47
2022-11-08T20:36:37.872Z,99886.09
2022-11-08T20:39:07.770Z,99903.53
2022-11-08T20:41:37.716Z,99908.78
2022-11-08T20:44:06.830Z,99880.69
2022-11-08T20:46:36.030Z,99871.22
2022-11-08T20:49:04.627Z,99864.28
2022-11-08T20:51:32.453Z,99898.44
2022-11-08T20:54:00.705Z,99875.69
2022-11-08T20:56:29.037Z,99858.34
2022-11-08T20:58:56.596Z,99898.59
2022-11-08T21:01:27.408Z,99905.50
2022-11-08T21:03:55.290Z,99890.72
2022-11-08T21:06:24.207Z,99885.56
2022-11-08T21:09:03.877Z,99897.91
2022-11-08T21:11:35.629Z,99874.41
2022-11-08T21:14:04.250Z,99881.34
2022-11-08T21:16:42.289Z,99895.09
2022-11-08T21:19:14.262Z,99904.06
2022-11-08T21:21:41.736Z,99895.44
2022-11-08T21:24:08.815Z,99807.22
2022-11-08T21:26:36.876Z,99885.81
2022-11-08T21:29:05.686Z,99893.78
2022-11-08T21:31:33.601Z,99867.53
2022-11-08T21:34:00.638Z,99876.03
2022-11-08T21:36:29.311Z,99855.16
2022-11-08T21:38:56.524Z,99873.63
2022-11-08T21:41:23.758Z,99816.91
2022-11-08T21:43:50.917Z,99879.91
2022-11-08T21:46:24.615Z,99891.25
2022-11-08T21:49:00.218Z,99788.06
2022-11-08T21:51:29.556Z,99897.41
2022-11-08T21:53:58.537Z,99900.91
2022-11-08T21:56:30.148Z,99896.63
2022-11-08T21:58:57.826Z,99901.81
2022-11-08T22:01:29.920Z,99871.22
2022-11-08T22:03:58.975Z,99859.81
2022-11-08T22:06:26.500Z,99886.03
2022-11-08T22:08:53.825Z,99892.97
2022-11-08T22:11:20.941Z,99825.63
2022-11-08T22:13:48.020Z,99890.34
2022-11-08T22:16:15.023Z,99881.53
2022-11-08T22:19:03.491Z,99886.91
2022-11-08T22:21:38.519Z,99855.31
2022-11-08T22:24:22.671Z,99896.63
2022-11-08T22:26:51.314Z,99887.63
2022-11-08T22:29:19.033Z,99815.91
2022-11-08T22:31:46.288Z,99883.31
2022-11-08T22:34:13.751Z,99907.75
2022-11-08T22:36:45.267Z,99880.72
2022-11-08T22:39:23.474Z,99875.66
2022-11-08T22:41:52.885Z,99889.50
2022-11-08T22:44:20.406Z,99886.75
2022-11-08T22:46:48.456Z,99893.84
2022-11-08T22:49:16.104Z,99767.81
2022-11-08T22:51:43.796Z,99906.91
2022-11-08T22:54:10.923Z,99909.56
2022-11-08T22:56:38.479Z,99905.34
2022-11-08T22:59:05.628Z,99907.91
2022-11-08T23:01:33.514Z,99906.91
2022-11-08T23:04:00.928Z,99877.06
2022-11-08T23:06:28.003Z,99890.34
2022-11-08T23:08:55.062Z,99889.50
2022-11-08T23:11:40.503Z,99893.13
2022-11-08T23:14:32.292Z,99792.28
2022-11-08T23:17:03.077Z,99914.81
2022-11-08T23:19:48.890Z,99832.56
2022-11-08T23:22:35.203Z,99907.91
2022-11-08T23:25:02.497Z,99907.03
2022-11-08T23:27:49.801Z,99887.75
2022-11-08T23:30:36.991Z,99867.72
2022-11-08T23:33:06.762Z,99914.84
2022-11-08T23:35:33.952Z,99909.63
2022-11-08T23:38:01.038Z,99901.81
2022-11-08T23:40:46.616Z,99917.41
2022-11-08T23:43:31.781Z,99858.97
2022-11-08T23:46:07.941Z,99894.72
2022-11-08T23:48:36.766Z,99902.66
2022-11-08T23:51:04.599Z,99911.41
2022-11-08T23:53:34.361Z,99908.06
2022-11-08T23:56:01.389Z,99903.63
2022-11-08T23:58:28.329Z,99910.69
